EPLL/LCJ METAR and TAF weather

Enter ICAO airport designator
Station Type Date Time Source
EPLL METAR 2022/01/25 05:30 UTC NOAA

EPLL 250530Z 26010KT 5000 BR OVC003 01/00 Q1027


Station Type Date Time Source
EPLL Decoded METAR 2022/01/25 05:30 UTC NOAA

Station name not available
Jan 25, 2022 - 12:30 AM EST / 2022.01.25 0530 UTC
Wind: from the W (260 degrees) at 12 MPH (10 KT):0
Visibility: 3 mile(s):0
Sky conditions: overcast
Weather: mist
Temperature: 33 F (1 C)
Windchill: 24 F (-4 C):1
Dew Point: 32 F (0 C)
Relative Humidity: 93%
Pressure (altimeter): 30.33 in. Hg (1027 hPa)
ob: EPLL 250530Z 26010KT 5000 BR OVC003 01/00 Q1027
cycle: 5

Station Type Date Time Source
EPLL TAF 2022/01/25 06:00 UTC NOAA

TAF EPLL 250530Z 2506/2606 28008KT 7000 OVC003
TEMPO 2506/2510 3000 DZ BR
BECMG 2508/2510 BKN006
TEMPO 2510/2606 3000 -RASN DZ BR BKN003

Example: see airport list